sensor_id;sensor_type;location;lat;lon;timestamp;pressure;altitude;pressure_sealevel;temperature;humidity
40838;BME280;29632;49.168;9.848;2022-11-15T00:01:41;96593.06;;;15.65;44.65
40838;BME280;29632;49.168;9.848;2022-11-15T00:04:07;96595.97;;;15.71;44.67
40838;BME280;29632;49.168;9.848;2022-11-15T00:06:32;96592.03;;;15.75;44.35
40838;BME280;29632;49.168;9.848;2022-11-15T00:08:59;96587.41;;;15.77;44.56
40838;BME280;29632;49.168;9.848;2022-11-15T00:11:25;96586.44;;;15.78;44.68
40838;BME280;29632;49.168;9.848;2022-11-15T00:13:51;96591.47;;;15.79;44.43
40838;BME280;29632;49.168;9.848;2022-11-15T00:16:16;96587.88;;;15.80;44.63
40838;BME280;29632;49.168;9.848;2022-11-15T00:18:42;96579.19;;;15.80;44.62
40838;BME280;29632;49.168;9.848;2022-11-15T00:21:10;96585.25;;;15.80;44.51
40838;BME280;29632;49.168;9.848;2022-11-15T00:23:36;96583.41;;;15.81;44.64
40838;BME280;29632;49.168;9.848;2022-11-15T00:26:02;96581.63;;;15.81;44.49
40838;BME280;29632;49.168;9.848;2022-11-15T00:28:28;96578.00;;;15.82;44.44
40838;BME280;29632;49.168;9.848;2022-11-15T00:31:02;96578.00;;;15.82;44.64
40838;BME280;29632;49.168;9.848;2022-11-15T00:33:28;96573.94;;;15.80;44.64
40838;BME280;29632;49.168;9.848;2022-11-15T00:38:32;96568.56;;;15.73;44.62
40838;BME280;29632;49.168;9.848;2022-11-15T00:40:58;96563.47;;;15.72;44.94
40838;BME280;29632;49.168;9.848;2022-11-15T00:43:24;96562.84;;;15.70;44.65
40838;BME280;29632;49.168;9.848;2022-11-15T00:45:49;96564.84;;;15.67;44.88
40838;BME280;29632;49.168;9.848;2022-11-15T00:48:15;96555.34;;;15.66;44.66
40838;BME280;29632;49.168;9.848;2022-11-15T00:50:40;96560.22;;;15.70;44.78
40838;BME280;29632;49.168;9.848;2022-11-15T00:53:06;96552.97;;;15.72;44.74
40838;BME280;29632;49.168;9.848;2022-11-15T00:55:32;96565.44;;;15.78;44.80
40838;BME280;29632;49.168;9.848;2022-11-15T00:57:57;96555.38;;;15.81;44.66
40838;BME280;29632;49.168;9.848;2022-11-15T01:00:23;96553.81;;;15.87;44.82
40838;BME280;29632;49.168;9.848;2022-11-15T01:02:49;96554.09;;;15.92;44.76
40838;BME280;29632;49.168;9.848;2022-11-15T01:05:14;96548.44;;;15.95;44.53
40838;BME280;29632;49.168;9.848;2022-11-15T01:07:40;96549.72;;;15.99;44.69
40838;BME280;29632;49.168;9.848;2022-11-15T01:10:06;96541.50;;;16.02;44.45
40838;BME280;29632;49.168;9.848;2022-11-15T01:12:31;96547.81;;;16.08;44.77
40838;BME280;29632;49.168;9.848;2022-11-15T01:14:57;96537.94;;;16.10;44.75
40838;BME280;29632;49.168;9.848;2022-11-15T01:17:23;96543.00;;;16.12;44.66
40838;BME280;29632;49.168;9.848;2022-11-15T01:19:49;96547.25;;;16.13;44.42
40838;BME280;29632;49.168;9.848;2022-11-15T01:22:15;96540.81;;;16.15;44.49
40838;BME280;29632;49.168;9.848;2022-11-15T01:24:40;96537.22;;;16.16;44.43
40838;BME280;29632;49.168;9.848;2022-11-15T01:27:06;96532.75;;;16.17;44.62
40838;BME280;29632;49.168;9.848;2022-11-15T01:29:32;96533.56;;;16.17;44.43
40838;BME280;29632;49.168;9.848;2022-11-15T01:31:58;96526.50;;;16.18;44.59
40838;BME280;29632;49.168;9.848;2022-11-15T01:34:23;96525.50;;;16.19;44.48
40838;BME280;29632;49.168;9.848;2022-11-15T01:36:49;96530.75;;;16.19;44.61
40838;BME280;29632;49.168;9.848;2022-11-15T01:39:15;96531.75;;;16.18;44.63
40838;BME280;29632;49.168;9.848;2022-11-15T01:41:41;96528.31;;;16.17;44.66
40838;BME280;29632;49.168;9.848;2022-11-15T01:44:31;96524.88;;;16.17;44.60
40838;BME280;29632;49.168;9.848;2022-11-15T01:46:58;96519.00;;;16.15;44.75
40838;BME280;29632;49.168;9.848;2022-11-15T01:49:24;96510.47;;;16.13;44.65
40838;BME280;29632;49.168;9.848;2022-11-15T01:51:53;96515.94;;;16.11;44.54
40838;BME280;29632;49.168;9.848;2022-11-15T01:54:20;96510.84;;;16.10;44.68
40838;BME280;29632;49.168;9.848;2022-11-15T01:56:52;96514.47;;;16.09;44.62
40838;BME280;29632;49.168;9.848;2022-11-15T01:59:18;96512.03;;;16.07;44.91
40838;BME280;29632;49.168;9.848;2022-11-15T02:01:44;96502.34;;;16.08;44.58
40838;BME280;29632;49.168;9.848;2022-11-15T02:04:21;96502.34;;;16.08;44.68
40838;BME280;29632;49.168;9.848;2022-11-15T02:06:49;96504.97;;;16.08;44.56
40838;BME280;29632;49.168;9.848;2022-11-15T02:09:15;96499.72;;;16.08;44.83
40838;BME280;29632;49.168;9.848;2022-11-15T02:11:41;96498.09;;;16.07;44.81
40838;BME280;29632;49.168;9.848;2022-11-15T02:14:07;96497.09;;;16.08;44.83
40838;BME280;29632;49.168;9.848;2022-11-15T02:30:41;96481.91;;;15.88;44.62
40838;BME280;29632;49.168;9.848;2022-11-15T02:36:54;96483.47;;;15.82;44.48
40838;BME280;29632;49.168;9.848;2022-11-15T02:39:42;96472.97;;;15.82;44.84
40838;BME280;29632;49.168;9.848;2022-11-15T02:42:19;96478.22;;;15.82;44.53
40838;BME280;29632;49.168;9.848;2022-11-15T02:45:06;96475.59;;;15.82;44.73
40838;BME280;29632;49.168;9.848;2022-11-15T02:47:37;96470.34;;;15.82;44.53
40838;BME280;29632;49.168;9.848;2022-11-15T02:50:08;96475.41;;;15.84;44.43
40838;BME280;29632;49.168;9.848;2022-11-15T02:52:34;96466.91;;;15.82;44.43
40838;BME280;29632;49.168;9.848;2022-11-15T02:55:00;96461.66;;;15.82;44.40
40838;BME280;29632;49.168;9.848;2022-11-15T03:00:15;96455.16;;;15.78;44.38
40838;BME280;29632;49.168;9.848;2022-11-15T03:02:55;96451.69;;;15.77;44.44
40838;BME280;29632;49.168;9.848;2022-11-15T03:05:48;96453.50;;;15.77;44.49
40838;BME280;29632;49.168;9.848;2022-11-15T03:08:31;96448.44;;;15.75;44.12
40838;BME280;29632;49.168;9.848;2022-11-15T03:11:03;96457.28;;;15.74;44.54
40838;BME280;29632;49.168;9.848;2022-11-15T03:16:30;96452.59;;;15.70;44.51
40838;BME280;29632;49.168;9.848;2022-11-15T03:19:08;96458.03;;;15.68;44.44
40838;BME280;29632;49.168;9.848;2022-11-15T03:21:36;96457.84;;;15.70;44.31
40838;BME280;29632;49.168;9.848;2022-11-15T03:24:04;96454.41;;;15.69;44.42
40838;BME280;29632;49.168;9.848;2022-11-15T03:26:30;96454.78;;;15.66;44.50
40838;BME280;29632;49.168;9.848;2022-11-15T03:29:04;96461.00;;;15.65;44.48
40838;BME280;29632;49.168;9.848;2022-11-15T03:31:34;96451.72;;;15.62;44.45
40838;BME280;29632;49.168;9.848;2022-11-15T03:36:45;96440.75;;;15.59;44.50
40838;BME280;29632;49.168;9.848;2022-11-15T03:39:12;96440.31;;;15.55;44.56
40838;BME280;29632;49.168;9.848;2022-11-15T03:47:20;96437.25;;;15.37;44.53
40838;BME280;29632;49.168;9.848;2022-11-15T03:49:53;96428.22;;;15.24;44.49
40838;BME280;29632;49.168;9.848;2022-11-15T03:52:21;96431.28;;;15.13;44.75
40838;BME280;29632;49.168;9.848;2022-11-15T03:54:52;96428.75;;;15.05;44.86
40838;BME280;29632;49.168;9.848;2022-11-15T03:57:18;96426.84;;;14.99;45.01
40838;BME280;29632;49.168;9.848;2022-11-15T03:59:44;96422.78;;;14.96;45.42
40838;BME280;29632;49.168;9.848;2022-11-15T04:02:09;96424.13;;;14.92;45.17
40838;BME280;29632;49.168;9.848;2022-11-15T04:04:35;96420.88;;;14.90;45.15
40838;BME280;29632;49.168;9.848;2022-11-15T04:07:01;96424.84;;;14.86;45.11
40838;BME280;29632;49.168;9.848;2022-11-15T04:09:26;96418.69;;;14.79;45.09
40838;BME280;29632;49.168;9.848;2022-11-15T04:11:52;96408.56;;;14.76;45.22
40838;BME280;29632;49.168;9.848;2022-11-15T04:14:18;96409.75;;;14.73;44.89
40838;BME280;29632;49.168;9.848;2022-11-15T04:16:43;96419.41;;;14.72;45.10
40838;BME280;29632;49.168;9.848;2022-11-15T04:19:09;96414.34;;;14.71;44.96
40838;BME280;29632;49.168;9.848;2022-11-15T04:22:10;96410.28;;;14.68;45.10
40838;BME280;29632;49.168;9.848;2022-11-15T04:24:54;96411.25;;;14.67;45.13
40838;BME280;29632;49.168;9.848;2022-11-15T04:27:20;96409.81;;;14.65;44.80
40838;BME280;29632;49.168;9.848;2022-11-15T04:29:45;96408.19;;;14.64;45.11
40838;BME280;29632;49.168;9.848;2022-11-15T04:32:11;96414.25;;;14.64;44.80
40838;BME280;29632;49.168;9.848;2022-11-15T04:34:37;96414.25;;;14.64;44.87
40838;BME280;29632;49.168;9.848;2022-11-15T04:37:03;96412.78;;;14.62;44.83
40838;BME280;29632;49.168;9.848;2022-11-15T04:39:39;96407.91;;;14.59;44.96
40838;BME280;29632;49.168;9.848;2022-11-15T04:42:05;96406.44;;;14.56;45.05
40838;BME280;29632;49.168;9.848;2022-11-15T04:44:31;96413.50;;;14.56;44.95
40838;BME280;29632;49.168;9.848;2022-11-15T04:46:56;96403.19;;;14.54;44.98
40838;BME280;29632;49.168;9.848;2022-11-15T04:49:22;96403.34;;;14.52;44.79
40838;BME280;29632;49.168;9.848;2022-11-15T04:51:48;96403.53;;;14.51;45.08
40838;BME280;29632;49.168;9.848;2022-11-15T04:54:13;96407.97;;;14.50;45.09
40838;BME280;29632;49.168;9.848;2022-11-15T04:56:39;96400.28;;;14.49;45.03
40838;BME280;29632;49.168;9.848;2022-11-15T04:59:05;96403.06;;;14.47;45.17
40838;BME280;29632;49.168;9.848;2022-11-15T05:01:30;96402.28;;;14.47;45.17
40838;BME280;29632;49.168;9.848;2022-11-15T05:03:56;96402.28;;;14.47;44.78
40838;BME280;29632;49.168;9.848;2022-11-15T05:06:40;96392.78;;;14.46;45.17
40838;BME280;29632;49.168;9.848;2022-11-15T05:09:06;96382.91;;;14.48;45.04
40838;BME280;29632;49.168;9.848;2022-11-15T05:11:32;96388.78;;;14.50;45.03
40838;BME280;29632;49.168;9.848;2022-11-15T05:13:57;96387.47;;;14.54;45.18
40838;BME280;29632;49.168;9.848;2022-11-15T05:16:23;96381.38;;;14.53;44.89
40838;BME280;29632;49.168;9.848;2022-11-15T05:18:53;96383.03;;;14.54;45.20
40838;BME280;29632;49.168;9.848;2022-11-15T05:21:19;96390.88;;;14.54;45.06
40838;BME280;29632;49.168;9.848;2022-11-15T05:23:45;96384.66;;;14.56;45.09
40838;BME280;29632;49.168;9.848;2022-11-15T05:26:11;96386.28;;;14.57;45.01
40838;BME280;29632;49.168;9.848;2022-11-15T05:28:37;96378.41;;;14.57;45.05
40838;BME280;29632;49.168;9.848;2022-11-15T05:31:09;96378.41;;;14.57;44.64
40838;BME280;29632;49.168;9.848;2022-11-15T05:33:39;96375.00;;;14.56;45.12
40838;BME280;29632;49.168;9.848;2022-11-15T05:36:43;96370.72;;;14.55;44.93
40838;BME280;29632;49.168;9.848;2022-11-15T05:39:10;96370.72;;;14.55;44.93
40838;BME280;29632;49.168;9.848;2022-11-15T05:41:39;96368.28;;;14.53;44.83
40838;BME280;29632;49.168;9.848;2022-11-15T05:44:07;96364.06;;;14.52;45.01
40838;BME280;29632;49.168;9.848;2022-11-15T05:46:34;96364.41;;;14.49;45.12
40838;BME280;29632;49.168;9.848;2022-11-15T05:49:02;96359.34;;;14.48;44.91
40838;BME280;29632;49.168;9.848;2022-11-15T05:51:30;96367.38;;;14.46;45.19
40838;BME280;29632;49.168;9.848;2022-11-15T05:53:56;96358.88;;;14.44;45.13
40838;BME280;29632;49.168;9.848;2022-11-15T05:56:24;96363.31;;;14.44;45.28
40838;BME280;29632;49.168;9.848;2022-11-15T05:58:52;96366.09;;;14.42;44.78
40838;BME280;29632;49.168;9.848;2022-11-15T06:01:18;96364.47;;;14.41;45.18
40838;BME280;29632;49.168;9.848;2022-11-15T06:03:43;96371.53;;;14.41;44.92
40838;BME280;29632;49.168;9.848;2022-11-15T06:06:09;96370.09;;;14.38;45.34
40838;BME280;29632;49.168;9.848;2022-11-15T06:08:35;96369.25;;;14.38;45.01
40838;BME280;29632;49.168;9.848;2022-11-15T06:11:07;96371.88;;;14.38;45.08
40838;BME280;29632;49.168;9.848;2022-11-15T06:13:33;96374.66;;;14.36;45.16
40838;BME280;29632;49.168;9.848;2022-11-15T06:15:59;96374.03;;;14.34;45.04
40838;BME280;29632;49.168;9.848;2022-11-15T06:18:25;96369.16;;;14.31;44.75
40838;BME280;29632;49.168;9.848;2022-11-15T06:20:51;96370.16;;;14.30;45.17
40838;BME280;29632;49.168;9.848;2022-11-15T06:23:17;96376.38;;;14.29;44.95
40838;BME280;29632;49.168;9.848;2022-11-15T06:25:42;96367.88;;;14.27;45.14
40838;BME280;29632;49.168;9.848;2022-11-15T06:28:08;96373.13;;;14.27;45.36
40838;BME280;29632;49.168;9.848;2022-11-15T06:30:33;96366.25;;;14.26;45.08
40838;BME280;29632;49.168;9.848;2022-11-15T06:33:03;96368.22;;;14.24;45.00
40838;BME280;29632;49.168;9.848;2022-11-15T06:35:29;96371.84;;;14.23;45.51
40838;BME280;29632;49.168;9.848;2022-11-15T06:37:55;96372.03;;;14.21;45.09
40838;BME280;29632;49.168;9.848;2022-11-15T06:40:21;96370.56;;;14.19;45.45
40838;BME280;29632;49.168;9.848;2022-11-15T06:42:46;96375.78;;;14.19;45.37
40838;BME280;29632;49.168;9.848;2022-11-15T06:45:12;96382.03;;;14.18;45.08
40838;BME280;29632;49.168;9.848;2022-11-15T06:47:47;96380.22;;;14.18;45.54
40838;BME280;29632;49.168;9.848;2022-11-15T06:50:13;96387.28;;;14.18;45.30
40838;BME280;29632;49.168;9.848;2022-11-15T06:52:39;96384.66;;;14.18;45.33
40838;BME280;29632;49.168;9.848;2022-11-15T06:55:05;96380.22;;;14.18;45.20
40838;BME280;29632;49.168;9.848;2022-11-15T06:57:30;96381.88;;;14.19;45.12
40838;BME280;29632;49.168;9.848;2022-11-15T06:59:57;96384.50;;;14.19;45.04
40838;BME280;29632;49.168;9.848;2022-11-15T07:02:23;96384.50;;;14.19;45.20
40838;BME280;29632;49.168;9.848;2022-11-15T07:04:48;96387.91;;;14.20;45.28
40838;BME280;29632;49.168;9.848;2022-11-15T07:07:14;96384.31;;;14.21;45.02
40838;BME280;29632;49.168;9.848;2022-11-15T07:09:40;96381.50;;;14.22;45.21
40838;BME280;29632;49.168;9.848;2022-11-15T07:12:06;96384.56;;;14.26;45.23
40838;BME280;29632;49.168;9.848;2022-11-15T07:14:31;96381.59;;;14.29;45.29
40838;BME280;29632;49.168;9.848;2022-11-15T07:16:57;96377.66;;;14.33;45.06
40838;BME280;29632;49.168;9.848;2022-11-15T07:19:22;96380.75;;;14.37;45.13
40838;BME280;29632;49.168;9.848;2022-11-15T07:21:48;96378.59;;;14.40;45.16
40838;BME280;29632;49.168;9.848;2022-11-15T07:24:14;96381.47;;;14.45;44.82
40838;BME280;29632;49.168;9.848;2022-11-15T07:26:39;96379.16;;;14.50;45.18
40838;BME280;29632;49.168;9.848;2022-11-15T07:29:05;96380.06;;;14.58;45.03
40838;BME280;29632;49.168;9.848;2022-11-15T07:31:31;96389.03;;;14.63;44.94
40838;BME280;29632;49.168;9.848;2022-11-15T07:33:56;96385.69;;;14.69;45.01
40838;BME280;29632;49.168;9.848;2022-11-15T07:36:22;96379.91;;;14.74;45.01
40838;BME280;29632;49.168;9.848;2022-11-15T07:38:48;96373.97;;;14.80;44.59
40838;BME280;29632;49.168;9.848;2022-11-15T07:41:13;96384.53;;;14.87;44.91
40838;BME280;29632;49.168;9.848;2022-11-15T07:43:39;96377.75;;;14.93;44.69
40838;BME280;29632;49.168;9.848;2022-11-15T07:46:06;96387.06;;;14.95;44.71
40838;BME280;29632;49.168;9.848;2022-11-15T07:48:38;96375.59;;;14.96;44.66
40838;BME280;29632;49.168;9.848;2022-11-15T07:51:06;96370.78;;;15.00;44.78
40838;BME280;29632;49.168;9.848;2022-11-15T07:53:32;96375.31;;;15.06;44.90
40838;BME280;29632;49.168;9.848;2022-11-15T07:55:58;96371.97;;;15.12;44.88
40838;BME280;29632;49.168;9.848;2022-11-15T07:58:24;96370.22;;;15.19;44.49
40838;BME280;29632;49.168;9.848;2022-11-15T08:00:49;96366.31;;;15.45;44.61
40838;BME280;29632;49.168;9.848;2022-11-15T08:03:16;96363.44;;;15.98;43.90
40838;BME280;29632;49.168;9.848;2022-11-15T08:05:42;96360.16;;;16.67;42.89
40838;BME280;29632;49.168;9.848;2022-11-15T08:08:09;96357.66;;;17.29;41.98
40838;BME280;29632;49.168;9.848;2022-11-15T08:10:36;96351.50;;;17.70;42.01
40838;BME280;29632;49.168;9.848;2022-11-15T08:13:04;96348.34;;;18.01;41.51
40838;BME280;29632;49.168;9.848;2022-11-15T08:15:30;96353.03;;;18.39;41.06
40838;BME280;29632;49.168;9.848;2022-11-15T08:17:57;96345.50;;;18.83;40.72
40838;BME280;29632;49.168;9.848;2022-11-15T08:20:24;96345.34;;;19.30;39.96
40838;BME280;29632;49.168;9.848;2022-11-15T08:22:50;96332.97;;;19.69;39.99
40838;BME280;29632;49.168;9.848;2022-11-15T08:25:16;96334.94;;;20.12;39.73
40838;BME280;29632;49.168;9.848;2022-11-15T08:27:42;96334.13;;;20.62;39.34
40838;BME280;29632;49.168;9.848;2022-11-15T08:30:07;96333.72;;;21.20;39.03
40838;BME280;29632;49.168;9.848;2022-11-15T08:32:33;96329.16;;;21.76;38.28
40838;BME280;29632;49.168;9.848;2022-11-15T08:34:59;96330.66;;;22.14;38.06
40838;BME280;29632;49.168;9.848;2022-11-15T08:37:24;96327.00;;;22.62;37.77
40838;BME280;29632;49.168;9.848;2022-11-15T08:39:50;96321.22;;;22.66;37.90
40838;BME280;29632;49.168;9.848;2022-11-15T08:42:16;96321.72;;;22.39;38.60
40838;BME280;29632;49.168;9.848;2022-11-15T08:44:42;96319.47;;;22.12;39.21
40838;BME280;29632;49.168;9.848;2022-11-15T08:47:09;96316.88;;;21.94;39.79
40838;BME280;29632;49.168;9.848;2022-11-15T08:49:36;96309.94;;;21.81;39.95
40838;BME280;29632;49.168;9.848;2022-11-15T08:52:02;96312.34;;;21.71;40.54
40838;BME280;29632;49.168;9.848;2022-11-15T08:54:28;96311.75;;;21.68;40.79
40838;BME280;29632;49.168;9.848;2022-11-15T08:56:53;96309.34;;;21.79;40.83
40838;BME280;29632;49.168;9.848;2022-11-15T08:59:19;96307.91;;;22.06;40.61
40838;BME280;29632;49.168;9.848;2022-11-15T09:01:44;96307.66;;;22.38;40.56
40838;BME280;29632;49.168;9.848;2022-11-15T09:04:10;96303.22;;;22.79;39.76
40838;BME280;29632;49.168;9.848;2022-11-15T09:06:36;96301.28;;;23.27;39.06
40838;BME280;29632;49.168;9.848;2022-11-15T09:09:02;96302.34;;;23.55;38.96
40838;BME280;29632;49.168;9.848;2022-11-15T09:11:28;96295.41;;;23.83;38.51
40838;BME280;29632;49.168;9.848;2022-11-15T09:13:54;96296.78;;;24.02;38.36
40838;BME280;29632;49.168;9.848;2022-11-15T09:16:19;96295.50;;;24.22;38.27
40838;BME280;29632;49.168;9.848;2022-11-15T09:18:45;96303.56;;;24.27;38.24
40838;BME280;29632;49.168;9.848;2022-11-15T09:21:11;96297.94;;;24.23;38.49
40838;BME280;29632;49.168;9.848;2022-11-15T09:23:37;96297.59;;;24.20;38.75
40838;BME280;29632;49.168;9.848;2022-11-15T09:26:04;96305.25;;;24.16;38.58
40838;BME280;29632;49.168;9.848;2022-11-15T09:28:30;96289.88;;;24.18;38.67
40838;BME280;29632;49.168;9.848;2022-11-15T09:31:00;96294.06;;;24.14;39.01
40838;BME280;29632;49.168;9.848;2022-11-15T09:33:26;96290.75;;;24.07;39.38
40838;BME280;29632;49.168;9.848;2022-11-15T09:35:52;96295.91;;;23.97;39.88
40838;BME280;29632;49.168;9.848;2022-11-15T09:38:18;96289.06;;;23.84;39.74
40838;BME280;29632;49.168;9.848;2022-11-15T09:40:44;96292.59;;;23.89;39.81
40838;BME280;29632;49.168;9.848;2022-11-15T09:43:37;96290.34;;;23.81;40.31
40838;BME280;29632;49.168;9.848;2022-11-15T09:49:09;96283.13;;;23.65;40.41
40838;BME280;29632;49.168;9.848;2022-11-15T09:51:42;96274.34;;;23.64;40.56
40838;BME280;29632;49.168;9.848;2022-11-15T09:56:44;96271.97;;;23.51;40.70
40838;BME280;29632;49.168;9.848;2022-11-15T10:01:59;96266.34;;;23.47;40.69
40838;BME280;29632;49.168;9.848;2022-11-15T10:04:30;96263.91;;;23.46;40.48
40838;BME280;29632;49.168;9.848;2022-11-15T10:07:04;96261.16;;;23.41;40.65
40838;BME280;29632;49.168;9.848;2022-11-15T10:09:53;96259.72;;;23.33;40.75
40838;BME280;29632;49.168;9.848;2022-11-15T10:12:21;96259.41;;;23.17;40.63
40838;BME280;29632;49.168;9.848;2022-11-15T10:14:48;96263.09;;;23.05;40.70
40838;BME280;29632;49.168;9.848;2022-11-15T10:17:51;96249.28;;;22.91;41.02
40838;BME280;29632;49.168;9.848;2022-11-15T10:20:21;96248.38;;;22.85;40.81
40838;BME280;29632;49.168;9.848;2022-11-15T10:22:52;96238.50;;;22.80;41.00
40838;BME280;29632;49.168;9.848;2022-11-15T10:25:24;96238.38;;;22.75;40.88
40838;BME280;29632;49.168;9.848;2022-11-15T10:27:57;96235.63;;;22.70;41.03
40838;BME280;29632;49.168;9.848;2022-11-15T10:30:32;96232.06;;;22.65;40.88
40838;BME280;29632;49.168;9.848;2022-11-15T10:32:58;96230.31;;;22.58;41.11
40838;BME280;29632;49.168;9.848;2022-11-15T10:35:33;96221.47;;;22.53;40.97
40838;BME280;29632;49.168;9.848;2022-11-15T10:38:10;96215.25;;;22.47;41.15
40838;BME280;29632;49.168;9.848;2022-11-15T10:40:38;96219.28;;;22.38;41.11
40838;BME280;29632;49.168;9.848;2022-11-15T10:43:17;96219.16;;;22.33;41.03
40838;BME280;29632;49.168;9.848;2022-11-15T10:45:44;96212.50;;;22.30;41.01
40838;BME280;29632;49.168;9.848;2022-11-15T10:50:40;96217.56;;;22.32;41.08
40838;BME280;29632;49.168;9.848;2022-11-15T10:55:49;96209.94;;;22.35;41.17
40838;BME280;29632;49.168;9.848;2022-11-15T10:58:32;96214.19;;;22.36;40.88
40838;BME280;29632;49.168;9.848;2022-11-15T11:01:25;96205.66;;;22.34;40.94
40838;BME280;29632;49.168;9.848;2022-11-15T11:04:05;96206.97;;;22.32;41.04
40838;BME280;29632;49.168;9.848;2022-11-15T11:06:55;96211.09;;;22.28;41.01
40838;BME280;29632;49.168;9.848;2022-11-15T11:11:50;96200.22;;;22.17;41.11
40838;BME280;29632;49.168;9.848;2022-11-15T11:14:35;96203.13;;;22.16;41.13
40838;BME280;29632;49.168;9.848;2022-11-15T11:17:30;96196.66;;;22.12;40.96
40838;BME280;29632;49.168;9.848;2022-11-15T11:20:18;96193.91;;;22.06;41.14
40838;BME280;29632;49.168;9.848;2022-11-15T11:37:17;96186.28;;;21.86;41.36
40838;BME280;29632;49.168;9.848;2022-11-15T11:48:13;96187.19;;;21.80;41.31
40838;BME280;29632;49.168;9.848;2022-11-15T11:50:40;96183.75;;;21.80;41.28
40838;BME280;29632;49.168;9.848;2022-11-15T11:53:30;96187.44;;;21.79;41.32
40838;BME280;29632;49.168;9.848;2022-11-15T11:55:58;96175.22;;;21.78;41.48
40838;BME280;29632;49.168;9.848;2022-11-15T11:58:38;96177.31;;;21.76;41.42
40838;BME280;29632;49.168;9.848;2022-11-15T12:01:34;96181.22;;;21.73;41.35
40838;BME280;29632;49.168;9.848;2022-11-15T12:04:11;96174.75;;;21.69;41.45
40838;BME280;29632;49.168;9.848;2022-11-15T12:06:53;96184.56;;;21.68;41.44
40838;BME280;29632;49.168;9.848;2022-11-15T12:12:38;96172.66;;;21.59;41.30
40838;BME280;29632;49.168;9.848;2022-11-15T12:15:04;96167.59;;;21.58;41.35
40838;BME280;29632;49.168;9.848;2022-11-15T12:17:37;96163.91;;;21.59;41.24
40838;BME280;29632;49.168;9.848;2022-11-15T12:20:27;96157.34;;;21.61;41.15
40838;BME280;29632;49.168;9.848;2022-11-15T12:23:06;96149.50;;;21.66;41.21
40838;BME280;29632;49.168;9.848;2022-11-15T12:28:37;96140.88;;;21.71;41.04
40838;BME280;29632;49.168;9.848;2022-11-15T12:33:41;96134.06;;;21.75;40.88
40838;BME280;29632;49.168;9.848;2022-11-15T12:38:58;96117.63;;;21.85;40.84
40838;BME280;29632;49.168;9.848;2022-11-15T12:41:29;96108.03;;;21.84;40.68
40838;BME280;29632;49.168;9.848;2022-11-15T12:43:55;96108.38;;;21.87;40.86
40838;BME280;29632;49.168;9.848;2022-11-15T13:02:44;96100.09;;;21.84;40.77
40838;BME280;29632;49.168;9.848;2022-11-15T13:17:52;96093.19;;;21.83;41.20
40838;BME280;29632;49.168;9.848;2022-11-15T13:20:25;96101.72;;;21.85;40.96
40838;BME280;29632;49.168;9.848;2022-11-15T13:30:40;96095.50;;;21.79;41.04
40838;BME280;29632;49.168;9.848;2022-11-15T13:33:17;96095.16;;;21.76;41.16
40838;BME280;29632;49.168;9.848;2022-11-15T13:35:49;96092.16;;;21.72;41.22
40838;BME280;29632;49.168;9.848;2022-11-15T13:40:51;96081.09;;;21.63;41.23
40838;BME280;29632;49.168;9.848;2022-11-15T13:43:33;96082.59;;;21.59;41.01
40838;BME280;29632;49.168;9.848;2022-11-15T13:48:46;96075.22;;;21.49;41.27
40838;BME280;29632;49.168;9.848;2022-11-15T13:53:54;96072.09;;;21.41;41.19
40838;BME280;29632;49.168;9.848;2022-11-15T13:56:20;96064.38;;;21.39;41.33
40838;BME280;29632;49.168;9.848;2022-11-15T13:58:46;96052.94;;;21.39;41.15
40838;BME280;29632;49.168;9.848;2022-11-15T14:01:17;96057.44;;;21.38;41.21
40838;BME280;29632;49.168;9.848;2022-11-15T14:03:58;96046.84;;;21.38;41.29
40838;BME280;29632;49.168;9.848;2022-11-15T14:06:29;96043.19;;;21.39;41.09
40838;BME280;29632;49.168;9.848;2022-11-15T14:11:35;96034.66;;;21.37;41.32
40838;BME280;29632;49.168;9.848;2022-11-15T14:16:43;96038.00;;;21.33;41.45
40838;BME280;29632;49.168;9.848;2022-11-15T14:22:17;96026.25;;;21.28;41.32
40838;BME280;29632;49.168;9.848;2022-11-15T14:24:45;96021.41;;;21.25;41.42
40838;BME280;29632;49.168;9.848;2022-11-15T14:29:42;96015.66;;;21.17;41.61
40838;BME280;29632;49.168;9.848;2022-11-15T14:32:14;96008.38;;;21.12;41.60
40838;BME280;29632;49.168;9.848;2022-11-15T14:34:40;96009.66;;;21.09;41.65
40838;BME280;29632;49.168;9.848;2022-11-15T14:37:19;96004.03;;;21.06;41.62
40838;BME280;29632;49.168;9.848;2022-11-15T14:39:46;95995.75;;;21.02;41.55
40838;BME280;29632;49.168;9.848;2022-11-15T14:42:12;95990.31;;;20.97;41.55
40838;BME280;29632;49.168;9.848;2022-11-15T14:44:37;95994.44;;;20.93;41.69
40838;BME280;29632;49.168;9.848;2022-11-15T14:47:03;95996.16;;;20.87;41.56
40838;BME280;29632;49.168;9.848;2022-11-15T14:49:28;95991.19;;;20.79;41.66
40838;BME280;29632;49.168;9.848;2022-11-15T14:51:54;95986.03;;;20.72;41.72
40838;BME280;29632;49.168;9.848;2022-11-15T14:54:20;95984.06;;;20.68;41.77
40838;BME280;29632;49.168;9.848;2022-11-15T14:56:45;95977.63;;;20.64;41.79
40838;BME280;29632;49.168;9.848;2022-11-15T14:59:11;95983.34;;;20.61;41.57
40838;BME280;29632;49.168;9.848;2022-11-15T15:01:36;95978.13;;;20.54;41.82
40838;BME280;29632;49.168;9.848;2022-11-15T15:04:02;95978.00;;;20.49;41.92
40838;BME280;29632;49.168;9.848;2022-11-15T15:06:28;95970.50;;;20.46;42.01
40838;BME280;29632;49.168;9.848;2022-11-15T15:08:56;95969.13;;;20.43;42.00
40838;BME280;29632;49.168;9.848;2022-11-15T15:11:27;95967.16;;;20.38;42.06
40838;BME280;29632;49.168;9.848;2022-11-15T15:13:54;95968.44;;;20.36;42.18
40838;BME280;29632;49.168;9.848;2022-11-15T15:16:23;95965.22;;;20.34;41.92
40838;BME280;29632;49.168;9.848;2022-11-15T15:18:49;95961.38;;;20.30;42.04
40838;BME280;29632;49.168;9.848;2022-11-15T15:21:27;95954.94;;;20.26;42.02
40838;BME280;29632;49.168;9.848;2022-11-15T15:23:54;95958.03;;;20.23;41.98
40838;BME280;29632;49.168;9.848;2022-11-15T15:26:20;95952.97;;;20.21;41.96
40838;BME280;29632;49.168;9.848;2022-11-15T15:28:46;95946.31;;;20.18;41.78
40838;BME280;29632;49.168;9.848;2022-11-15T15:31:14;95944.31;;;20.14;41.56